Huvudsida
METAR-TAF:

METAR-TAF

Flygplatser :

Reus Airport

Reus, Spanien

latitud: 41-09N, longitud: 001-10E, höjd: 71 m

Aktuellt väderrapport

Denna rapport gjordes för 32 minuter sedan, klockan 05:00 UTC
Vind 8 kt från nord
Temperatur 21°C
Fuktighet 64%
Tryck 1019 hPa
Sikt 10 km eller mer
Få moln på en höjd av 1000 ft

METAR: LERS 230500Z 01008KT 9999 FEW010 21/14 Q1019

Tid: 07:32 (05:32 UTC)

Väderprognos

Denna rapport gjordes för 2 timmar och 27 minuter sedan, klockan 03:05 UTC
Prognos gäller från 23 kl. 03 UTC till 24 kl. 03 UTC
Vind 4 kt varierande vindriktning
Sikt 10 km eller mer
Få moln på en höjd av 2500 ft
Temporärt
från 23 kl. 03 UTC till 23 kl. 06 UTC
Brutna moln på en höjd av 1000 ft
Blir
från 23 kl. 09 UTC till 23 kl. 11 UTC
Vind 8 kt från syd/sydväst
Blir
från 23 kl. 18 UTC till 23 kl. 20 UTC
Vind 4 kt varierande vindriktning

TAF: LERS 230305Z 2303/2403 VRB04KT 9999 FEW025 TX31/2313Z TN20/2305Z TEMPO 2303/2306 BKN010 BECMG 2309/2311 20008KT BECMG 2318/2320 VRB04KT

Aktuella väderrapporter och prognoser från 4000 flygplatser (METAR- och TAF-rapporter).

De tillgängliga stationerna syns som gula och röda prickar på kartan.

För musen över prickarna för att se namnen på stationerna.

Klicka sedan för att få väderrapporter och prognoser.

För att ändra kartan: Klicka på de gröna knapparna med ett svart kors på för att zooma in; den gröna knappen med ett streck på för att zooma ut; eller på de gröna pilarna för angränsande kartor.


METAR-TAF: